N124MC KBUF-KIAG
Flight info
| Callsign | N124MC |
|---|---|
| Flight time | 0h 12m |
| Altitude | 2500 |
| Route | VFR |
| Aircraft | BE24/L-VGD/C |
Departure
| Time | 2026-05-06 19:28 |
|---|---|
| Airport | Buffalo Niagara International Airport (KBUF) |
Arrival
| Time | 2026-05-06 19:41 |
|---|---|
| Airport | Niagara Falls International Airport (KIAG) |
| Time | Latitude | Longitude | Altitude | Speed | Heading |
|---|---|---|---|---|---|
| 2026-05-06 19:05 | 42.94675 | -78.73420 | 708 ft | 0 kts | 208° |
| 2026-05-06 19:26 | 42.94667 | -78.73435 | 705 ft | 9 kts | 259° |
| 2026-05-06 19:26 | 42.94677 | -78.73538 | 705 ft | 7 kts | 239° |
| 2026-05-06 19:26 | 42.94671 | -78.73622 | 706 ft | 16 kts | 291° |
| 2026-05-06 19:26 | 42.94743 | -78.73809 | 705 ft | 25 kts | 284° |
| 2026-05-06 19:27 | 42.94751 | -78.74046 | 704 ft | 25 kts | 274° |
| 2026-05-06 19:27 | 42.94671 | -78.74123 | 704 ft | 15 kts | 144° |
| 2026-05-06 19:27 | 42.94516 | -78.73839 | 701 ft | 64 kts | 126° |
| 2026-05-06 19:27 | 42.94215 | -78.73277 | 824 ft | 80 kts | 130° |
| 2026-05-06 19:28 | 42.93875 | -78.72632 | 1070 ft | 86 kts | 133° |
| 2026-05-06 19:28 | 42.93449 | -78.72051 | 1232 ft | 92 kts | 170° |
| 2026-05-06 19:28 | 42.93011 | -78.72494 | 1450 ft | 91 kts | 269° |
| 2026-05-06 19:28 | 42.93153 | -78.73339 | 1739 ft | 93 kts | 281° |
| 2026-05-06 19:29 | 42.93276 | -78.74202 | 1979 ft | 94 kts | 279° |
| 2026-05-06 19:29 | 42.93419 | -78.75148 | 2008 ft | 108 kts | 279° |
| 2026-05-06 19:29 | 42.93580 | -78.76196 | 2009 ft | 118 kts | 280° |
| 2026-05-06 19:29 | 42.93758 | -78.77316 | 2008 ft | 124 kts | 280° |
| 2026-05-06 19:30 | 42.93929 | -78.78486 | 2009 ft | 127 kts | 280° |
| 2026-05-06 19:30 | 42.94096 | -78.79671 | 2010 ft | 127 kts | 280° |
| 2026-05-06 19:30 | 42.94266 | -78.80863 | 2002 ft | 129 kts | 279° |
| 2026-05-06 19:30 | 42.94446 | -78.82053 | 2003 ft | 128 kts | 280° |
| 2026-05-06 19:31 | 42.94633 | -78.83246 | 2008 ft | 130 kts | 280° |
| 2026-05-06 19:31 | 42.94823 | -78.84454 | 2007 ft | 131 kts | 279° |
| 2026-05-06 19:31 | 42.95199 | -78.86900 | 2007 ft | 133 kts | 280° |
| 2026-05-06 19:32 | 42.95391 | -78.88129 | 2006 ft | 132 kts | 280° |
| 2026-05-06 19:32 | 42.95585 | -78.89360 | 2005 ft | 132 kts | 281° |
| 2026-05-06 19:32 | 42.95965 | -78.90496 | 2001 ft | 132 kts | 297° |
| 2026-05-06 19:32 | 42.96590 | -78.91387 | 1996 ft | 134 kts | 329° |
| 2026-05-06 19:33 | 42.97493 | -78.91636 | 1986 ft | 137 kts | 4° |
| 2026-05-06 19:33 | 42.98445 | -78.91455 | 1988 ft | 136 kts | 355° |
| 2026-05-06 19:33 | 42.99269 | -78.91931 | 1990 ft | 130 kts | 321° |
| 2026-05-06 19:33 | 42.99965 | -78.92730 | 1991 ft | 132 kts | 311° |
| 2026-05-06 19:34 | 43.00626 | -78.93639 | 1913 ft | 135 kts | 310° |
| 2026-05-06 19:34 | 43.01292 | -78.94560 | 1840 ft | 138 kts | 311° |
| 2026-05-06 19:34 | 43.01964 | -78.95483 | 1771 ft | 140 kts | 314° |
| 2026-05-06 19:34 | 43.02697 | -78.96356 | 1695 ft | 140 kts | 317° |
| 2026-05-06 19:35 | 43.03470 | -78.97194 | 1614 ft | 142 kts | 320° |
| 2026-05-06 19:35 | 43.04249 | -78.97994 | 1527 ft | 140 kts | 321° |
| 2026-05-06 19:35 | 43.05011 | -78.98778 | 1492 ft | 133 kts | 319° |
| 2026-05-06 19:35 | 43.05747 | -78.99523 | 1486 ft | 129 kts | 320° |
| 2026-05-06 19:36 | 43.06416 | -79.00330 | 1481 ft | 128 kts | 315° |
| 2026-05-06 19:36 | 43.06999 | -79.01202 | 1483 ft | 122 kts | 303° |
| 2026-05-06 19:36 | 43.07421 | -79.02209 | 1484 ft | 122 kts | 294° |
| 2026-05-06 19:36 | 43.07712 | -79.03301 | 1479 ft | 122 kts | 283° |
| 2026-05-06 19:37 | 43.07917 | -79.04414 | 1483 ft | 120 kts | 283° |
| 2026-05-06 19:37 | 43.08114 | -79.05522 | 1492 ft | 121 kts | 282° |
| 2026-05-06 19:37 | 43.08423 | -79.06584 | 1486 ft | 124 kts | 313° |
| 2026-05-06 19:37 | 43.09248 | -79.06780 | 1482 ft | 131 kts | 22° |
| 2026-05-06 19:38 | 43.09784 | -79.05785 | 1492 ft | 133 kts | 67° |
| 2026-05-06 19:38 | 43.10153 | -79.04655 | 1497 ft | 128 kts | 63° |
| 2026-05-06 19:38 | 43.10462 | -79.03571 | 1480 ft | 119 kts | 76° |
| 2026-05-06 19:38 | 43.10604 | -79.02507 | 1485 ft | 109 kts | 77° |
| 2026-05-06 19:39 | 43.10733 | -79.01553 | 1475 ft | 92 kts | 78° |
| 2026-05-06 19:39 | 43.10751 | -79.00752 | 1471 ft | 79 kts | 90° |
| 2026-05-06 19:39 | 43.10794 | -78.99970 | 1317 ft | 83 kts | 77° |
| 2026-05-06 19:39 | 43.10891 | -78.99211 | 1147 ft | 81 kts | 82° |
| 2026-05-06 19:40 | 43.10947 | -78.98457 | 990 ft | 79 kts | 89° |
| 2026-05-06 19:40 | 43.10961 | -78.97697 | 828 ft | 80 kts | 91° |
| 2026-05-06 19:40 | 43.10959 | -78.96970 | 665 ft | 66 kts | 90° |
| 2026-05-06 19:40 | 43.10956 | -78.96386 | 592 ft | 52 kts | 89° |
| 2026-05-06 19:41 | 43.11009 | -78.96043 | 586 ft | 27 kts | 5° |
| 2026-05-06 19:41 | 43.11155 | -78.96000 | 591 ft | 21 kts | 53° |
| 2026-05-06 19:41 | 43.11178 | -78.95761 | 590 ft | 30 kts | 86° |
| 2026-05-06 19:41 | 43.11187 | -78.95449 | 594 ft | 36 kts | 88° |
| 2026-05-06 19:42 | 43.11239 | -78.95117 | 594 ft | 33 kts | 39° |
| 2026-05-06 19:42 | 43.11325 | -78.95005 | 597 ft | 0 kts | 84° |